createdAt,value
2018-09-25T00:00:49.355Z,3.90
2018-09-25T00:01:49.344Z,3.90
2018-09-25T00:02:49.332Z,4.30
2018-09-25T00:03:49.321Z,3.70
2018-09-25T00:04:49.312Z,3.79
2018-09-25T00:05:49.298Z,3.90
2018-09-25T00:06:49.291Z,4.69
2018-09-25T00:07:49.282Z,4.30
2018-09-25T00:08:49.273Z,5.00
2018-09-25T00:09:49.258Z,5.40
2018-09-25T00:10:49.245Z,4.30
2018-09-25T00:11:49.236Z,5.19
2018-09-25T00:12:49.236Z,5.69
2018-09-25T00:13:49.212Z,5.40
2018-09-25T00:14:49.201Z,4.59
2018-09-25T00:15:49.190Z,4.19
2018-09-25T00:16:49.182Z,4.40
2018-09-25T00:17:49.170Z,4.30
2018-09-25T00:18:49.159Z,4.19
2018-09-25T00:19:49.152Z,3.70
2018-09-25T00:20:49.141Z,3.50
2018-09-25T00:21:49.130Z,3.59
2018-09-25T00:22:49.117Z,3.20
2018-09-25T00:23:49.107Z,3.90
2018-09-25T00:24:49.095Z,4.40
2018-09-25T00:25:49.084Z,5.19
2018-09-25T00:26:49.073Z,11.89
2018-09-25T00:27:49.061Z,8.19
2018-09-25T00:28:49.052Z,5.40
2018-09-25T00:29:49.040Z,11.10
2018-09-25T00:30:49.027Z,5.40
2018-09-25T00:31:49.016Z,5.09
2018-09-25T00:32:49.007Z,4.50
2018-09-25T00:33:48.994Z,8.00
2018-09-25T00:34:48.997Z,6.19
2018-09-25T00:35:48.973Z,5.40
2018-09-25T00:36:48.961Z,7.90
2018-09-25T00:37:48.951Z,6.30
2018-09-25T00:38:48.941Z,6.40
2018-09-25T00:39:48.930Z,8.30
2018-09-25T00:40:48.920Z,5.90
2018-09-25T00:41:48.907Z,6.30
2018-09-25T00:42:48.898Z,6.50
2018-09-25T00:43:48.886Z,8.00
2018-09-25T00:44:48.876Z,7.09
2018-09-25T00:45:48.864Z,6.09
2018-09-25T00:46:48.854Z,6.00
2018-09-25T00:47:48.850Z,6.00
2018-09-25T00:48:48.834Z,6.19
2018-09-25T00:49:48.821Z,7.30
2018-09-25T00:50:48.810Z,7.00
2018-09-25T00:51:48.798Z,12.50
2018-09-25T00:52:48.791Z,7.09
2018-09-25T00:53:48.780Z,9.10
2018-09-25T00:54:48.773Z,7.50
2018-09-25T00:55:48.756Z,9.89
2018-09-25T00:56:48.744Z,7.50
2018-09-25T00:57:48.736Z,6.80
2018-09-25T00:58:48.731Z,5.80
2018-09-25T00:59:48.713Z,5.80
2018-09-25T01:00:48.708Z,6.69
2018-09-25T01:01:48.694Z,5.19
2018-09-25T01:02:48.681Z,5.90
2018-09-25T01:03:48.669Z,5.80
2018-09-25T01:04:48.664Z,7.40
2018-09-25T01:05:48.649Z,6.69
2018-09-25T01:06:48.634Z,7.69
2018-09-25T01:07:48.623Z,9.00
2018-09-25T01:08:48.614Z,5.00
2018-09-25T01:09:48.605Z,8.60
2018-09-25T01:10:48.595Z,6.30
2018-09-25T01:11:48.582Z,7.00
2018-09-25T01:12:48.570Z,7.90
2018-09-25T01:13:48.561Z,6.09
2018-09-25T01:14:48.548Z,9.00
2018-09-25T01:15:48.540Z,9.30
2018-09-25T01:16:48.526Z,8.69
2018-09-25T01:17:48.517Z,9.00
2018-09-25T01:18:48.505Z,11.89
2018-09-25T01:19:48.500Z,6.40
2018-09-25T01:20:48.485Z,10.30
2018-09-25T01:21:48.474Z,6.69
2018-09-25T01:22:48.464Z,7.09
2018-09-25T01:23:48.452Z,7.40
2018-09-25T01:24:48.443Z,8.69
2018-09-25T01:25:48.429Z,9.80
2018-09-25T01:26:48.417Z,6.40
2018-09-25T01:27:48.411Z,6.50
2018-09-25T01:28:48.396Z,9.00
2018-09-25T01:29:48.384Z,7.30
2018-09-25T01:30:48.376Z,9.10
2018-09-25T01:31:48.366Z,5.69
2018-09-25T01:32:48.353Z,6.90
2018-09-25T01:33:48.344Z,5.09
2018-09-25T01:34:48.333Z,9.00
2018-09-25T01:35:48.324Z,6.00
2018-09-25T01:36:48.311Z,8.19
2018-09-25T01:37:48.298Z,7.30
2018-09-25T01:38:48.287Z,7.50
2018-09-25T01:39:48.277Z,6.90
2018-09-25T01:40:48.264Z,7.19
2018-09-25T01:41:48.258Z,6.59
2018-09-25T01:42:48.244Z,7.19
2018-09-25T01:43:48.234Z,13.89
2018-09-25T01:44:48.224Z,8.89
2018-09-25T01:45:48.216Z,6.69
2018-09-25T01:46:48.202Z,6.40
2018-09-25T01:47:48.192Z,11.30
2018-09-25T01:48:48.182Z,6.69
2018-09-25T01:49:48.167Z,7.80
2018-09-25T01:50:48.161Z,8.50
2018-09-25T01:51:48.146Z,12.50
2018-09-25T01:52:48.138Z,7.69
2018-09-25T01:53:48.127Z,7.50
2018-09-25T01:54:48.113Z,7.40
2018-09-25T01:55:48.104Z,9.50
2018-09-25T01:56:48.092Z,8.60
2018-09-25T01:57:48.081Z,6.00
2018-09-25T01:58:48.069Z,8.89
2018-09-25T01:59:48.061Z,15.80
2018-09-25T02:00:48.053Z,7.19
2018-09-25T02:01:48.039Z,6.09
2018-09-25T02:02:48.024Z,17.29
2018-09-25T02:03:48.019Z,12.69
2018-09-25T02:04:48.005Z,10.30
2018-09-25T02:05:48.051Z,8.80
2018-09-25T02:06:47.984Z,10.50
2018-09-25T02:07:47.976Z,8.50
2018-09-25T02:08:47.962Z,9.60
2018-09-25T02:09:47.950Z,7.30
2018-09-25T02:10:47.942Z,6.69
2018-09-25T02:11:47.930Z,7.40
2018-09-25T02:12:47.917Z,7.40
2018-09-25T02:13:47.911Z,9.69
2018-09-25T02:14:47.899Z,5.40
2018-09-25T02:15:47.891Z,5.80
2018-09-25T02:16:47.872Z,11.80
2018-09-25T02:17:47.861Z,5.80
2018-09-25T02:18:47.851Z,11.89
2018-09-25T02:19:47.842Z,8.10
2018-09-25T02:20:47.831Z,6.80
2018-09-25T02:21:47.819Z,7.00
2018-09-25T02:22:47.811Z,6.90
2018-09-25T02:23:47.800Z,6.40
2018-09-25T02:24:47.786Z,5.90
2018-09-25T02:25:47.778Z,7.19
2018-09-25T02:26:47.764Z,10.89
2018-09-25T02:27:47.756Z,9.30
2018-09-25T02:28:47.744Z,6.09
2018-09-25T02:29:47.736Z,6.50
2018-09-25T02:30:47.728Z,6.00
2018-09-25T02:31:47.712Z,6.59
2018-09-25T02:32:47.700Z,6.19
2018-09-25T02:33:47.689Z,6.90
2018-09-25T02:34:47.677Z,6.30
2018-09-25T02:35:47.667Z,9.19
2018-09-25T02:36:47.656Z,9.50
2018-09-25T02:37:47.644Z,11.80
2018-09-25T02:38:47.636Z,6.40
2018-09-25T02:39:47.623Z,5.80
2018-09-25T02:40:47.614Z,7.19
2018-09-25T02:41:47.605Z,8.00
2018-09-25T02:42:47.594Z,8.80
2018-09-25T02:43:47.581Z,7.90
2018-09-25T02:44:47.570Z,12.50
2018-09-25T02:45:47.557Z,15.89
2018-09-25T02:46:47.548Z,14.60
2018-09-25T02:47:47.538Z,13.60
2018-09-25T02:48:47.528Z,9.60
2018-09-25T02:49:47.515Z,7.40
2018-09-25T02:50:47.503Z,9.69
2018-09-25T02:51:47.492Z,8.10
2018-09-25T02:52:47.483Z,6.80
2018-09-25T02:53:47.473Z,9.60
2018-09-25T02:54:47.461Z,7.90
2018-09-25T02:55:47.452Z,13.30
2018-09-25T02:56:47.438Z,10.39
2018-09-25T02:57:47.430Z,9.89
2018-09-25T02:58:47.416Z,9.89
2018-09-25T02:59:47.405Z,11.89
2018-09-25T03:00:47.397Z,15.39
2018-09-25T03:01:47.386Z,17.60
2018-09-25T03:02:47.374Z,16.50
2018-09-25T03:03:47.366Z,14.19
2018-09-25T03:04:47.355Z,11.00
2018-09-25T03:05:47.345Z,10.00
2018-09-25T03:06:47.333Z,8.69
2018-09-25T03:07:47.322Z,12.39
2018-09-25T03:08:47.324Z,9.80
2018-09-25T03:09:47.300Z,7.30
2018-09-25T03:10:47.286Z,7.00
2018-09-25T03:11:47.274Z,5.40
2018-09-25T03:12:47.265Z,6.09
2018-09-25T03:13:47.253Z,6.59
2018-09-25T03:14:47.245Z,4.50
2018-09-25T03:15:47.233Z,7.50
2018-09-25T03:16:47.221Z,7.69
2018-09-25T03:17:47.211Z,5.80
2018-09-25T03:18:47.199Z,7.69
2018-09-25T03:19:47.188Z,5.09
2018-09-25T03:20:47.175Z,5.09
2018-09-25T03:21:47.166Z,4.80
2018-09-25T03:22:47.157Z,9.10
2018-09-25T03:23:47.307Z,6.59
2018-09-25T03:24:47.136Z,7.30
2018-09-25T03:25:47.124Z,5.69
2018-09-25T03:26:47.118Z,7.30
2018-09-25T03:27:47.102Z,5.30
2018-09-25T03:28:47.090Z,4.09
2018-09-25T03:29:47.083Z,3.59
2018-09-25T03:30:47.070Z,3.29
2018-09-25T03:31:47.071Z,3.40
2018-09-25T03:32:47.049Z,3.79
2018-09-25T03:33:47.036Z,3.59
2018-09-25T03:34:47.027Z,5.90
2018-09-25T03:35:47.016Z,13.10
2018-09-25T03:36:47.007Z,12.39
2018-09-25T03:37:46.991Z,6.59
2018-09-25T03:38:46.982Z,10.80
2018-09-25T03:39:46.973Z,8.50
2018-09-25T03:40:46.964Z,8.00
2018-09-25T03:41:47.006Z,7.30
2018-09-25T03:42:46.939Z,7.59
2018-09-25T03:43:46.927Z,8.19
2018-09-25T03:44:46.919Z,8.10
2018-09-25T03:45:46.906Z,8.19
2018-09-25T03:46:46.902Z,8.19
2018-09-25T03:47:46.886Z,12.00
2018-09-25T03:48:46.873Z,7.40
2018-09-25T03:49:46.863Z,5.59
2018-09-25T03:50:46.851Z,5.90
2018-09-25T03:51:46.848Z,5.59
2018-09-25T03:52:46.831Z,6.90
2018-09-25T03:53:46.818Z,6.00
2018-09-25T03:54:46.810Z,7.19
2018-09-25T03:55:46.797Z,6.69
2018-09-25T03:56:46.788Z,4.90
2018-09-25T03:57:46.783Z,5.09
2018-09-25T03:58:46.763Z,6.40
2018-09-25T03:59:46.754Z,4.00
2018-09-25T04:00:46.745Z,4.69
2018-09-25T04:01:46.729Z,4.09
2018-09-25T04:02:46.718Z,4.30
2018-09-25T04:03:46.710Z,9.19
2018-09-25T04:04:46.698Z,8.00
2018-09-25T04:05:46.688Z,9.60
2018-09-25T04:06:46.677Z,7.90
2018-09-25T04:07:46.664Z,10.30
2018-09-25T04:08:46.653Z,7.19
2018-09-25T04:09:46.643Z,7.59
2018-09-25T04:10:46.633Z,8.60
2018-09-25T04:11:46.627Z,14.39
2018-09-25T04:12:46.615Z,7.30
2018-09-25T04:13:46.602Z,6.59
2018-09-25T04:14:46.591Z,8.89
2018-09-25T04:15:46.579Z,7.50
2018-09-25T04:16:46.570Z,9.80
2018-09-25T04:17:46.563Z,8.39
2018-09-25T04:18:46.548Z,6.90
2018-09-25T04:19:46.534Z,9.60
2018-09-25T04:20:46.525Z,7.40
2018-09-25T04:21:46.513Z,8.69
2018-09-25T04:22:46.509Z,7.80
2018-09-25T04:23:46.493Z,9.50
2018-09-25T04:24:46.481Z,8.89
2018-09-25T04:25:46.471Z,9.39
2018-09-25T04:26:46.461Z,8.89
2018-09-25T04:27:46.450Z,8.10
2018-09-25T04:28:46.446Z,10.30
2018-09-25T04:29:46.428Z,11.50
2018-09-25T04:30:46.420Z,7.80
2018-09-25T04:31:46.405Z,9.00
2018-09-25T04:32:46.393Z,9.00
2018-09-25T04:33:46.389Z,9.89
2018-09-25T04:34:46.372Z,10.10
2018-09-25T04:35:46.361Z,7.30
2018-09-25T04:36:46.353Z,9.69
2018-09-25T04:37:46.340Z,8.00
2018-09-25T04:38:46.329Z,9.50
2018-09-25T04:39:46.320Z,7.09
2018-09-25T04:40:46.308Z,6.69
2018-09-25T04:41:46.299Z,8.50
2018-09-25T04:42:46.284Z,7.30
2018-09-25T04:43:46.277Z,8.50
2018-09-25T04:44:46.266Z,7.50
2018-09-25T04:45:46.255Z,6.50
2018-09-25T04:46:46.245Z,5.69
2018-09-25T04:47:46.281Z,6.59
2018-09-25T04:48:46.220Z,7.30
2018-09-25T04:49:46.209Z,7.50
2018-09-25T04:50:46.198Z,6.50
2018-09-25T04:51:46.193Z,8.30
2018-09-25T04:52:46.178Z,7.19
2018-09-25T04:53:46.165Z,9.69
2018-09-25T04:54:46.155Z,7.90
2018-09-25T04:55:46.149Z,7.30
2018-09-25T04:56:46.135Z,7.19
2018-09-25T04:57:46.124Z,6.30
2018-09-25T04:58:46.116Z,7.40
2018-09-25T04:59:46.101Z,8.39
2018-09-25T05:00:46.090Z,7.59
2018-09-25T05:01:46.078Z,8.30
2018-09-25T05:02:46.068Z,7.40
2018-09-25T05:03:46.058Z,10.10
2018-09-25T05:04:46.046Z,9.69
2018-09-25T05:05:46.034Z,9.60
2018-09-25T05:06:46.154Z,7.80
2018-09-25T05:07:46.021Z,10.80
2018-09-25T05:08:46.003Z,8.30
2018-09-25T05:09:45.998Z,7.50
2018-09-25T05:10:45.981Z,8.80
2018-09-25T05:11:45.972Z,7.30
2018-09-25T05:12:45.960Z,8.69
2018-09-25T05:13:45.950Z,7.69
2018-09-25T05:14:45.975Z,9.00
2018-09-25T05:15:45.930Z,9.00
2018-09-25T05:16:45.918Z,10.30
2018-09-25T05:17:45.905Z,8.50
2018-09-25T05:18:45.895Z,12.19
2018-09-25T05:19:45.884Z,8.50
2018-09-25T05:20:45.874Z,6.80
2018-09-25T05:21:45.862Z,5.90
2018-09-25T05:22:45.854Z,5.00
2018-09-25T05:23:45.840Z,5.59
2018-09-25T05:24:45.833Z,4.69
2018-09-25T05:25:45.822Z,4.09
2018-09-25T05:26:45.809Z,4.00
2018-09-25T05:27:45.795Z,4.69
2018-09-25T05:28:45.787Z,4.30
2018-09-25T05:29:45.774Z,4.09
2018-09-25T05:30:45.763Z,4.90
2018-09-25T05:31:45.755Z,4.80
2018-09-25T05:32:45.745Z,4.40
2018-09-25T05:33:45.732Z,4.69
2018-09-25T05:34:45.720Z,4.90
2018-09-25T05:35:45.708Z,5.19
2018-09-25T05:36:45.702Z,5.00
2018-09-25T05:37:45.687Z,4.59
2018-09-25T05:38:45.674Z,4.90
2018-09-25T05:39:45.669Z,4.80
2018-09-25T05:40:45.677Z,4.50
2018-09-25T05:41:45.643Z,5.30
2018-09-25T05:42:45.633Z,5.00
2018-09-25T05:43:45.621Z,5.30
2018-09-25T05:44:45.613Z,4.69
2018-09-25T05:45:45.603Z,4.69
2018-09-25T05:46:45.588Z,4.19
2018-09-25T05:47:45.577Z,4.19
2018-09-25T05:48:45.597Z,4.30
2018-09-25T05:49:45.553Z,5.00
2018-09-25T05:50:45.620Z,5.50
2018-09-25T05:51:45.538Z,4.90
2018-09-25T05:52:45.522Z,5.00
2018-09-25T05:53:45.513Z,4.90
2018-09-25T05:54:45.500Z,5.09
2018-09-25T05:55:45.491Z,4.69
2018-09-25T05:56:45.479Z,4.40
2018-09-25T05:57:45.468Z,4.80
2018-09-25T05:58:45.463Z,4.59
2018-09-25T05:59:45.448Z,4.50
2018-09-25T06:00:45.435Z,4.50
2018-09-25T06:01:45.426Z,5.59
2018-09-25T06:02:45.413Z,4.90
2018-09-25T06:03:45.401Z,4.69
2018-09-25T06:04:45.393Z,5.00
2018-09-25T06:05:45.384Z,4.69
2018-09-25T06:06:45.373Z,4.80
2018-09-25T06:07:45.360Z,4.50
2018-09-25T06:08:45.348Z,4.30
2018-09-25T06:09:45.456Z,4.40
2018-09-25T06:10:45.330Z,4.30
2018-09-25T06:11:45.317Z,3.70
2018-09-25T06:12:45.304Z,3.79
2018-09-25T06:13:45.299Z,3.59
2018-09-25T06:14:45.283Z,3.59
2018-09-25T06:15:45.323Z,3.29
2018-09-25T06:16:45.260Z,3.20
2018-09-25T06:17:45.249Z,3.40
2018-09-25T06:18:45.296Z,3.59
2018-09-25T06:19:45.228Z,3.59
2018-09-25T06:20:45.218Z,3.29
2018-09-25T06:21:45.207Z,3.09
2018-09-25T06:22:45.197Z,2.70
2018-09-25T06:23:45.185Z,3.20
2018-09-25T06:24:45.173Z,3.00
2018-09-25T06:25:45.165Z,3.00
2018-09-25T06:26:45.181Z,3.20
2018-09-25T06:27:45.145Z,3.40
2018-09-25T06:28:45.185Z,3.00
2018-09-25T06:29:45.118Z,3.50
2018-09-25T06:30:45.112Z,3.50
2018-09-25T06:31:45.100Z,3.70
2018-09-25T06:32:45.092Z,3.70
2018-09-25T06:33:45.074Z,3.79
2018-09-25T06:34:45.081Z,4.00
2018-09-25T06:35:45.055Z,4.00
2018-09-25T06:36:45.041Z,4.40
2018-09-25T06:37:45.032Z,3.90
2018-09-25T06:38:45.069Z,4.59
2018-09-25T06:39:45.013Z,4.40
2018-09-25T06:40:45.021Z,4.40
2018-09-25T06:41:44.989Z,4.40
2018-09-25T06:42:44.978Z,5.00
2018-09-25T06:43:44.968Z,5.09
2018-09-25T06:44:44.956Z,5.00
2018-09-25T06:45:44.946Z,5.09
2018-09-25T06:46:44.933Z,4.19
2018-09-25T06:47:44.924Z,4.90
2018-09-25T06:48:44.915Z,4.90
2018-09-25T06:49:44.901Z,5.19
2018-09-25T06:50:44.893Z,5.40
2018-09-25T06:51:44.881Z,5.59
2018-09-25T06:52:44.868Z,5.59
2018-09-25T06:53:44.857Z,5.50
2018-09-25T06:54:44.950Z,5.50
2018-09-25T06:55:44.837Z,5.50
2018-09-25T06:56:44.827Z,5.50
2018-09-25T06:57:44.812Z,5.69
2018-09-25T06:58:44.801Z,5.09
2018-09-25T06:59:44.794Z,5.40
2018-09-25T07:00:44.851Z,5.50
2018-09-25T07:01:44.771Z,5.59
2018-09-25T07:02:44.757Z,5.00
2018-09-25T07:03:44.750Z,5.69
2018-09-25T07:04:44.737Z,6.19
2018-09-25T07:05:44.725Z,6.40
2018-09-25T07:06:44.721Z,6.59
2018-09-25T07:07:44.704Z,6.19
2018-09-25T07:08:44.691Z,6.59
2018-09-25T07:09:44.751Z,6.30
2018-09-25T07:10:44.798Z,7.40
2018-09-25T07:11:44.658Z,6.19
2018-09-25T07:12:44.653Z,6.50
2018-09-25T07:13:44.638Z,6.19
2018-09-25T07:14:44.626Z,7.40
2018-09-25T07:15:44.632Z,6.40
2018-09-25T07:16:44.605Z,6.19
2018-09-25T07:17:44.658Z,7.59
2018-09-25T07:18:44.584Z,6.00
2018-09-25T07:19:44.572Z,6.90
2018-09-25T07:20:44.563Z,7.50
2018-09-25T07:21:44.550Z,6.69
2018-09-25T07:22:44.582Z,7.50
2018-09-25T07:23:44.535Z,7.19
2018-09-25T07:24:44.616Z,7.00
2018-09-25T07:25:44.509Z,7.19
2018-09-25T07:26:44.495Z,7.19
2018-09-25T07:27:44.484Z,7.50
2018-09-25T07:28:44.475Z,7.59
2018-09-25T07:29:44.462Z,6.59
2018-09-25T07:30:44.452Z,6.90
2018-09-25T07:31:44.442Z,7.80
2018-09-25T07:32:44.431Z,7.30
2018-09-25T07:33:44.421Z,6.50
2018-09-25T07:34:44.410Z,7.90
2018-09-25T07:35:44.437Z,7.19
2018-09-25T07:36:44.386Z,7.19
2018-09-25T07:37:44.380Z,6.59
2018-09-25T07:38:44.364Z,7.09
2018-09-25T07:39:44.425Z,6.80
2018-09-25T07:40:44.343Z,8.80
2018-09-25T07:41:44.333Z,7.80
2018-09-25T07:42:44.322Z,7.80
2018-09-25T07:43:44.313Z,7.90
2018-09-25T07:44:44.299Z,7.80
2018-09-25T07:45:44.287Z,8.00
2018-09-25T07:46:44.276Z,8.39
2018-09-25T07:47:44.268Z,7.69
2018-09-25T07:48:44.262Z,8.60
2018-09-25T07:49:44.244Z,8.19
2018-09-25T07:50:44.235Z,8.10
2018-09-25T07:51:44.224Z,7.19
2018-09-25T07:52:44.211Z,8.00
2018-09-25T07:53:44.200Z,8.10
2018-09-25T07:54:44.193Z,7.59
2018-09-25T07:55:44.304Z,7.59
2018-09-25T07:56:44.170Z,7.69
2018-09-25T07:57:44.158Z,7.59
2018-09-25T07:58:44.148Z,7.69
2018-09-25T07:59:44.133Z,8.19
2018-09-25T08:00:44.125Z,7.09
2018-09-25T08:01:44.112Z,8.30
2018-09-25T08:02:44.101Z,7.59
2018-09-25T08:03:44.095Z,7.59
2018-09-25T08:04:44.083Z,8.10
2018-09-25T08:05:44.071Z,8.10
2018-09-25T08:06:44.062Z,8.39
2018-09-25T08:07:44.049Z,7.40
2018-09-25T08:08:44.037Z,7.50
2018-09-25T08:09:44.033Z,8.10
2018-09-25T08:10:44.015Z,7.90
2018-09-25T08:11:44.004Z,7.80
2018-09-25T08:12:43.994Z,8.60
2018-09-25T08:13:43.983Z,8.00
2018-09-25T08:14:43.971Z,7.80
2018-09-25T08:15:43.959Z,8.10
2018-09-25T08:16:43.951Z,8.30
2018-09-25T08:17:43.941Z,7.80
2018-09-25T08:18:43.929Z,8.19
2018-09-25T08:19:43.918Z,8.10
2018-09-25T08:20:43.907Z,8.50
2018-09-25T08:21:43.897Z,8.30
2018-09-25T08:22:43.887Z,9.00
2018-09-25T08:23:43.874Z,9.50
2018-09-25T08:24:43.871Z,8.39
2018-09-25T08:25:43.852Z,8.50
2018-09-25T08:26:43.881Z,8.60
2018-09-25T08:27:43.829Z,8.10
2018-09-25T08:28:43.819Z,9.39
2018-09-25T08:29:43.865Z,8.60
2018-09-25T08:30:43.800Z,8.30
2018-09-25T08:31:43.787Z,9.19
2018-09-25T08:32:43.776Z,8.80
2018-09-25T08:33:43.766Z,8.60
2018-09-25T08:34:43.752Z,8.30
2018-09-25T08:35:43.741Z,8.19
2018-09-25T08:36:43.732Z,8.10
2018-09-25T08:37:43.722Z,8.89
2018-09-25T08:38:43.768Z,8.50
2018-09-25T08:39:43.698Z,8.89
2018-09-25T08:40:43.688Z,8.19
2018-09-25T08:41:43.698Z,8.10
2018-09-25T08:42:43.665Z,8.80
2018-09-25T08:43:43.659Z,9.89
2018-09-25T08:44:43.662Z,8.69
2018-09-25T08:45:43.661Z,8.39
2018-09-25T08:46:43.621Z,8.80
2018-09-25T08:47:43.631Z,8.89
2018-09-25T08:48:43.599Z,8.50
2018-09-25T08:49:43.601Z,8.30
2018-09-25T08:50:43.579Z,8.69
2018-09-25T08:51:43.568Z,9.00
2018-09-25T08:52:43.558Z,8.69
2018-09-25T08:53:43.546Z,8.50
2018-09-25T08:54:43.535Z,8.50
2018-09-25T08:55:43.530Z,9.10
2018-09-25T08:56:43.514Z,9.10
2018-09-25T08:57:43.508Z,8.80
2018-09-25T08:58:43.490Z,9.50
2018-09-25T08:59:43.479Z,9.60
2018-09-25T09:00:43.468Z,8.60
2018-09-25T09:01:43.457Z,9.00
2018-09-25T09:02:43.448Z,8.89
2018-09-25T09:03:43.435Z,8.80
2018-09-25T09:04:43.426Z,9.19
2018-09-25T09:05:43.414Z,9.30
2018-09-25T09:06:43.403Z,9.69
2018-09-25T09:07:43.396Z,8.89
2018-09-25T09:08:43.379Z,9.80
2018-09-25T09:09:43.371Z,8.89
2018-09-25T09:10:43.363Z,9.39
2018-09-25T09:11:43.350Z,9.39
2018-09-25T09:12:43.337Z,9.19
2018-09-25T09:13:43.328Z,9.69
2018-09-25T09:14:43.316Z,9.69
2018-09-25T09:15:43.307Z,9.39
2018-09-25T09:16:43.294Z,9.30
2018-09-25T09:17:43.281Z,9.30
2018-09-25T09:18:43.290Z,10.10
2018-09-25T09:19:43.285Z,9.10
2018-09-25T09:20:43.252Z,10.30
2018-09-25T09:21:43.237Z,9.60
2018-09-25T09:22:43.226Z,10.00
2018-09-25T09:23:43.216Z,10.19
2018-09-25T09:24:43.206Z,9.39
2018-09-25T09:25:43.197Z,9.19
2018-09-25T09:26:43.185Z,9.30
2018-09-25T09:27:43.173Z,9.50
2018-09-25T09:28:43.166Z,9.69
2018-09-25T09:29:43.152Z,9.50
2018-09-25T09:30:43.139Z,9.80
2018-09-25T09:31:43.131Z,9.69
2018-09-25T09:32:43.178Z,9.69
2018-09-25T09:33:43.109Z,9.80
2018-09-25T09:34:43.096Z,9.50
2018-09-25T09:35:43.092Z,10.60
2018-09-25T09:36:43.075Z,9.30
2018-09-25T09:37:43.063Z,10.00
2018-09-25T09:38:43.053Z,10.19
2018-09-25T09:39:43.039Z,10.30
2018-09-25T09:40:43.033Z,9.60
2018-09-25T09:41:43.316Z,10.19
2018-09-25T09:42:43.012Z,10.50
2018-09-25T09:43:42.996Z,10.80
2018-09-25T09:44:42.988Z,11.00
2018-09-25T09:45:42.977Z,11.39
2018-09-25T09:46:42.963Z,10.69
2018-09-25T09:47:42.959Z,10.89
2018-09-25T09:48:42.966Z,11.89
2018-09-25T09:49:42.932Z,11.00
2018-09-25T09:50:42.921Z,10.80
2018-09-25T09:51:42.911Z,10.50
2018-09-25T09:52:42.899Z,10.19
2018-09-25T09:53:42.888Z,10.19
2018-09-25T09:54:42.876Z,10.30
2018-09-25T09:55:42.867Z,10.89
2018-09-25T09:56:42.857Z,10.00
2018-09-25T09:57:42.844Z,10.19
2018-09-25T09:58:42.833Z,10.19
2018-09-25T09:59:42.821Z,9.80
2018-09-25T10:00:42.811Z,10.39
2018-09-25T10:01:42.799Z,9.80
2018-09-25T10:02:42.791Z,9.19
2018-09-25T10:03:42.779Z,9.69
2018-09-25T10:04:42.768Z,9.89
2018-09-25T10:05:42.757Z,6.19
2018-09-25T10:06:42.849Z,6.90
2018-09-25T10:07:42.734Z,6.59
2018-09-25T10:08:42.727Z,6.00
2018-09-25T10:09:42.712Z,6.09
2018-09-25T10:10:42.705Z,7.19
2018-09-25T10:11:42.692Z,6.50
2018-09-25T10:12:42.678Z,6.30
2018-09-25T10:13:42.669Z,4.19
2018-09-25T10:14:42.657Z,4.30
2018-09-25T10:15:42.648Z,3.50
2018-09-25T10:16:42.636Z,3.29
2018-09-25T10:17:42.625Z,3.79
2018-09-25T10:18:42.650Z,4.00
2018-09-25T10:19:42.602Z,3.90
2018-09-25T10:20:42.590Z,4.00
2018-09-25T10:21:42.581Z,3.70
2018-09-25T10:22:42.569Z,3.50
2018-09-25T10:23:42.560Z,3.29
2018-09-25T10:24:42.548Z,3.79
2018-09-25T10:25:42.535Z,3.09
2018-09-25T10:26:42.524Z,2.70
2018-09-25T10:27:42.516Z,2.90
2018-09-25T10:28:42.504Z,2.90
2018-09-25T10:29:42.497Z,2.59
2018-09-25T10:30:42.484Z,2.50
2018-09-25T10:31:42.472Z,2.50
2018-09-25T10:32:42.460Z,2.29
2018-09-25T10:33:42.496Z,2.50
2018-09-25T10:34:42.437Z,2.40
2018-09-25T10:35:42.426Z,2.59
2018-09-25T10:36:42.418Z,2.59
2018-09-25T10:37:42.406Z,2.20
2018-09-25T10:38:42.394Z,2.29
2018-09-25T10:39:42.383Z,2.50
2018-09-25T10:40:42.371Z,2.20
2018-09-25T10:41:42.364Z,1.79
2018-09-25T10:42:42.353Z,1.39
2018-09-25T10:43:42.341Z,1.50
2018-09-25T10:44:42.328Z,2.20
2018-09-25T10:45:42.315Z,1.90
2018-09-25T10:46:42.308Z,1.70
2018-09-25T10:47:42.298Z,3.29
2018-09-25T10:48:42.283Z,2.29
2018-09-25T10:49:42.297Z,2.09
2018-09-25T10:50:42.263Z,1.79
2018-09-25T10:51:42.250Z,1.39
2018-09-25T10:52:42.240Z,1.60
2018-09-25T10:53:42.228Z,1.79
2018-09-25T10:54:42.217Z,1.39
2018-09-25T10:55:42.215Z,1.79
2018-09-25T10:56:42.195Z,1.50
2018-09-25T10:57:42.184Z,1.60
2018-09-25T10:58:42.175Z,1.60
2018-09-25T10:59:42.163Z,1.20
2018-09-25T11:00:42.151Z,1.39
2018-09-25T11:01:42.139Z,1.20
2018-09-25T11:02:42.136Z,2.09
2018-09-25T11:03:42.118Z,1.50
2018-09-25T11:04:42.109Z,1.60
2018-09-25T11:05:42.099Z,1.79
2018-09-25T11:06:42.088Z,0.80
2018-09-25T11:07:42.075Z,1.00
2018-09-25T11:08:42.068Z,0.90
2018-09-25T11:09:42.052Z,1.90
2018-09-25T11:10:42.043Z,2.70
2018-09-25T11:11:42.031Z,2.00
2018-09-25T11:12:42.021Z,1.60
2018-09-25T11:13:42.010Z,1.20
2018-09-25T11:14:42.000Z,1.50
2018-09-25T11:15:41.987Z,0.80
2018-09-25T11:16:41.979Z,1.00
2018-09-25T11:17:41.992Z,0.80
2018-09-25T11:18:41.958Z,1.00
2018-09-25T11:19:41.951Z,0.90
2018-09-25T11:20:41.933Z,0.90
2018-09-25T11:21:41.923Z,1.00
2018-09-25T11:22:41.913Z,0.80
2018-09-25T11:23:41.901Z,1.00
2018-09-25T11:24:41.891Z,0.90
2018-09-25T11:25:41.877Z,1.60
2018-09-25T11:26:41.870Z,0.90
2018-09-25T11:27:41.857Z,0.80
2018-09-25T11:28:41.845Z,3.40
2018-09-25T11:29:41.835Z,1.60
2018-09-25T11:30:41.823Z,0.80
2018-09-25T11:31:41.816Z,0.70
2018-09-25T11:32:41.801Z,0.70
2018-09-25T11:33:41.787Z,0.70
2018-09-25T11:34:41.782Z,0.60
2018-09-25T11:35:41.769Z,0.60
2018-09-25T11:36:41.763Z,0.70
2018-09-25T11:37:41.745Z,0.70
2018-09-25T11:38:41.734Z,0.50
2018-09-25T11:39:41.723Z,0.80
2018-09-25T11:40:41.713Z,0.70
2018-09-25T11:41:41.700Z,0.80
2018-09-25T11:42:41.689Z,1.10
2018-09-25T11:43:41.678Z,0.80
2018-09-25T11:44:41.668Z,0.70
2018-09-25T11:45:41.656Z,0.80
2018-09-25T11:46:41.765Z,0.70
2018-09-25T11:47:41.634Z,0.70
2018-09-25T11:48:41.626Z,0.90
2018-09-25T11:49:41.642Z,0.70
2018-09-25T11:50:41.602Z,1.10
2018-09-25T11:51:41.592Z,0.70
2018-09-25T11:52:41.599Z,0.80
2018-09-25T11:53:41.573Z,0.80
2018-09-25T11:54:41.564Z,0.80
2018-09-25T11:55:41.551Z,0.60
2018-09-25T11:56:41.534Z,0.60
2018-09-25T11:57:41.526Z,0.80
2018-09-25T11:58:41.516Z,0.60
2018-09-25T11:59:41.507Z,0.70
2018-09-25T12:00:41.492Z,0.60
2018-09-25T12:01:41.481Z,0.70
2018-09-25T12:02:41.478Z,0.60
2018-09-25T12:03:41.461Z,0.70
2018-09-25T12:04:41.451Z,0.60
2018-09-25T12:05:41.441Z,0.40
2018-09-25T12:06:41.428Z,0.60
2018-09-25T12:07:41.417Z,0.80
2018-09-25T12:08:41.406Z,0.80
2018-09-25T12:09:41.392Z,0.70
2018-09-25T12:10:41.403Z,0.60
2018-09-25T12:11:41.371Z,0.70
2018-09-25T12:12:41.365Z,1.10
2018-09-25T12:13:41.357Z,1.20
2018-09-25T12:14:41.342Z,0.90
2018-09-25T12:15:41.328Z,0.70
2018-09-25T12:16:41.318Z,1.29
2018-09-25T12:17:41.306Z,0.90
2018-09-25T12:18:41.293Z,0.80
2018-09-25T12:19:41.284Z,1.39
2018-09-25T12:20:41.273Z,0.80
2018-09-25T12:21:41.260Z,0.70
2018-09-25T12:22:41.252Z,0.60
2018-09-25T12:23:41.239Z,0.90
2018-09-25T12:24:41.226Z,0.80
2018-09-25T12:25:41.216Z,0.70
2018-09-25T12:26:41.206Z,0.80
2018-09-25T12:27:41.206Z,0.70
2018-09-25T12:28:41.187Z,0.60
2018-09-25T12:29:41.174Z,0.80
2018-09-25T12:30:41.169Z,0.80
2018-09-25T12:31:41.151Z,0.70
2018-09-25T12:32:41.216Z,0.80
2018-09-25T12:33:41.170Z,0.60
2018-09-25T12:34:41.121Z,0.70
2018-09-25T12:35:41.108Z,0.80
2018-09-25T12:36:41.097Z,0.70
2018-09-25T12:37:41.086Z,0.60
2018-09-25T12:38:41.105Z,0.70
2018-09-25T12:39:41.065Z,0.70
2018-09-25T12:40:41.053Z,0.60
2018-09-25T12:41:41.047Z,1.20
2018-09-25T12:42:41.030Z,1.00
2018-09-25T12:43:41.020Z,1.00
2018-09-25T12:44:41.011Z,1.10
2018-09-25T12:45:40.997Z,1.00
2018-09-25T12:46:40.989Z,1.50
2018-09-25T12:47:40.977Z,1.20
2018-09-25T12:48:40.966Z,1.20
2018-09-25T12:49:40.954Z,1.00
2018-09-25T12:50:40.941Z,1.00
2018-09-25T12:51:40.932Z,1.00
2018-09-25T12:52:40.922Z,1.20
2018-09-25T12:53:40.917Z,1.10
2018-09-25T12:54:40.901Z,0.90
2018-09-25T12:55:40.888Z,1.10
2018-09-25T12:56:40.884Z,0.90
2018-09-25T12:57:40.868Z,1.00
2018-09-25T12:58:40.861Z,1.00
2018-09-25T12:59:40.843Z,0.90
2018-09-25T13:00:40.845Z,1.10
2018-09-25T13:01:40.823Z,0.90
2018-09-25T13:02:40.811Z,1.00
2018-09-25T13:03:40.800Z,0.90
2018-09-25T13:04:40.792Z,1.10
2018-09-25T13:05:40.779Z,1.10
2018-09-25T13:06:40.766Z,0.90
2018-09-25T13:07:40.756Z,1.00
2018-09-25T13:08:40.747Z,1.29
2018-09-25T13:09:40.746Z,2.00
2018-09-25T13:10:40.727Z,1.20
2018-09-25T13:11:40.714Z,0.90
2018-09-25T13:12:40.705Z,0.80
2018-09-25T13:13:40.693Z,1.10
2018-09-25T13:14:40.690Z,0.80
2018-09-25T13:15:40.673Z,0.90
2018-09-25T13:16:40.669Z,0.80